Time;durP1;ratioP1;P1;durP2;ratioP2;P2;SDS_P1;SDS_P2;PMS_P1;PMS_P2;Temp;Humidity;BMP_temperature;BMP_pressure;BME280_temperature;BME280_humidity;BME280_pressure;Samples;Min_cycle;Max_cycle;Signal;HPM_P1;HPM_P2
2023/03/13 00:00:30;;;;;;;0.80;0.57;;;;;;;;;;1033083;28;20033;-21
2023/03/13 00:01:01;;;;;;;0.85;0.65;;;;;;;;;;1033751;28;20129;-21
2023/03/13 00:01:40;;;;;;;0.30;0.28;;;;;;;;;;1033093;28;20022;-21
2023/03/13 00:02:10;;;;;;;0.65;0.65;;;;;;;;;;1033433;28;20021;-21
2023/03/13 00:02:44;;;;;;;0.15;0.15;;;;;;;;;;1034320;28;20057;-21
2023/03/13 00:03:14;;;;;;;0.75;0.50;;;;;;;;;;1035627;28;20489;-21
2023/03/13 00:03:45;;;;;;;0.40;0.40;;;;;;;;;;1033687;28;20029;-20
2023/03/13 00:04:15;;;;;;;0.35;0.32;;;;;;;;;;1033578;28;20045;-21
2023/03/13 00:04:46;;;;;;;1.15;0.70;;;;;;;;;;1033393;28;20053;-21
2023/03/13 00:05:16;;;;;;;0.28;0.28;;;;;;;;;;1033262;28;20113;-21
2023/03/13 00:05:47;;;;;;;0.70;0.47;;;;;;;;;;1033484;28;20028;-20
2023/03/13 00:06:17;;;;;;;0.95;0.47;;;;;;;;;;1033392;28;20025;-21
2023/03/13 00:06:48;;;;;;;3.08;0.77;;;;;;;;;;1033237;28;20013;-21
2023/03/13 00:07:18;;;;;;;1.45;0.68;;;;;;;;;;1033535;28;20137;-21
2023/03/13 00:07:49;;;;;;;0.20;0.20;;;;;;;;;;1033245;28;20037;-21
2023/03/13 00:08:19;;;;;;;0.30;0.30;;;;;;;;;;1033524;28;20022;-21
2023/03/13 00:08:49;;;;;;;0.28;0.28;;;;;;;;;;1032767;28;20034;-21
2023/03/13 00:09:22;;;;;;;1.35;0.43;;;;;;;;;;1034077;28;20021;-21
2023/03/13 00:09:52;;;;;;;1.35;0.20;;;;;;;;;;1032428;28;20478;-20
2023/03/13 00:10:23;;;;;;;0.68;0.57;;;;;;;;;;1032862;28;20022;-20
2023/03/13 00:10:53;;;;;;;0.85;0.40;;;;;;;;;;1033552;28;20481;-20
2023/03/13 00:11:24;;;;;;;1.13;0.98;;;;;;;;;;1033147;28;20511;-21
2023/03/13 00:11:54;;;;;;;3.90;1.35;;;;;;;;;;1033366;28;20541;-20
2023/03/13 00:12:24;;;;;;;1.98;0.90;;;;;;;;;;1033612;28;20112;-21
2023/03/13 00:12:55;;;;;;;1.45;0.60;;;;;;;;;;1033736;28;20433;-21
2023/03/13 00:13:25;;;;;;;3.45;0.77;;;;;;;;;;1033096;28;20072;-21
2023/03/13 00:13:57;;;;;;;0.40;0.40;;;;;;;;;;1032946;28;20030;-21
2023/03/13 00:14:27;;;;;;;0.52;0.47;;;;;;;;;;1033528;28;20478;-21
2023/03/13 00:14:58;;;;;;;1.85;0.77;;;;;;;;;;1033336;28;20030;-20
2023/03/13 00:15:28;;;;;;;1.38;1.13;;;;;;;;;;1033822;28;20117;-21
2023/03/13 00:16:02;;;;;;;1.67;1.08;;;;;;;;;;1033248;28;20469;-21
2023/03/13 00:16:39;;;;;;;1.00;0.75;;;;;;;;;;1032367;28;20070;-21
2023/03/13 00:17:09;;;;;;;3.60;0.85;;;;;;;;;;1032680;28;20034;-21
2023/03/13 00:17:40;;;;;;;0.98;0.52;;;;;;;;;;1033185;28;20116;-21
2023/03/13 00:18:10;;;;;;;1.17;0.85;;;;;;;;;;1033623;28;20110;-21
2023/03/13 00:18:45;;;;;;;2.25;0.85;;;;;;;;;;1038152;28;20556;-21
2023/03/13 00:19:15;;;;;;;2.88;0.98;;;;;;;;;;1038622;28;20033;-21
2023/03/13 00:19:46;;;;;;;2.85;1.25;;;;;;;;;;1033391;28;20498;-20
2023/03/13 00:20:16;;;;;;;3.03;1.00;;;;;;;;;;1033609;28;20424;-20
2023/03/13 00:20:47;;;;;;;1.27;0.80;;;;;;;;;;1033495;28;20564;-20
2023/03/13 00:21:19;;;;;;;1.27;0.98;;;;;;;;;;1033418;28;20036;-21
2023/03/13 00:21:49;;;;;;;3.20;0.82;;;;;;;;;;1034815;28;20033;-21
2023/03/13 00:22:20;;;;;;;1.15;0.50;;;;;;;;;;1035480;28;20401;-21
2023/03/13 00:22:50;;;;;;;3.22;1.55;;;;;;;;;;1035569;28;20030;-21
2023/03/13 00:23:21;;;;;;;0.85;0.73;;;;;;;;;;1035434;28;20116;-23
2023/03/13 00:23:51;;;;;;;0.77;0.65;;;;;;;;;;1035556;28;20026;-21
2023/03/13 00:24:22;;;;;;;3.33;1.70;;;;;;;;;;1033566;28;20037;-21
2023/03/13 00:24:52;;;;;;;0.85;0.65;;;;;;;;;;1033317;28;20068;-21
2023/03/13 00:25:22;;;;;;;1.67;1.10;;;;;;;;;;1033411;28;20377;-21
2023/03/13 00:26:00;;;;;;;1.77;1.13;;;;;;;;;;1033484;28;20501;-20
2023/03/13 00:26:31;;;;;;;3.70;1.65;;;;;;;;;;1037375;28;20401;-21
2023/03/13 00:27:03;;;;;;;3.67;1.33;;;;;;;;;;1037450;28;20017;-20
2023/03/13 00:27:34;;;;;;;3.53;0.80;;;;;;;;;;1039256;28;20076;-21
2023/03/13 00:28:04;;;;;;;2.20;0.85;;;;;;;;;;1039217;28;20053;-21
2023/03/13 00:28:36;;;;;;;4.22;1.15;;;;;;;;;;1035215;28;20397;-21
2023/03/13 00:29:06;;;;;;;2.47;1.75;;;;;;;;;;1033431;28;20469;-21
2023/03/13 00:29:36;;;;;;;1.20;0.98;;;;;;;;;;1033428;28;20033;-21
2023/03/13 00:30:07;;;;;;;3.83;1.20;;;;;;;;;;1033572;28;20065;-20
2023/03/13 00:30:38;;;;;;;1.55;1.10;;;;;;;;;;1032428;28;20030;-21
2023/03/13 00:31:13;;;;;;;1.45;0.77;;;;;;;;;;1033345;28;20105;-21
2023/03/13 00:31:43;;;;;;;1.45;1.00;;;;;;;;;;1034522;28;20042;-20
2023/03/13 00:32:14;;;;;;;4.97;0.95;;;;;;;;;;1035882;28;20029;-21
2023/03/13 00:32:45;;;;;;;4.93;1.60;;;;;;;;;;1035523;28;20029;-20
2023/03/13 00:33:15;;;;;;;3.40;1.08;;;;;;;;;;1035709;28;20022;-20
2023/03/13 00:33:47;;;;;;;2.85;2.00;;;;;;;;;;1034671;28;20026;-20
2023/03/13 00:34:18;;;;;;;3.33;1.45;;;;;;;;;;1033617;28;20030;-21
2023/03/13 00:34:48;;;;;;;2.40;1.20;;;;;;;;;;1033872;28;20014;-20
2023/03/13 00:35:19;;;;;;;2.13;1.05;;;;;;;;;;1034834;28;20397;-20
2023/03/13 00:35:49;;;;;;;1.83;1.05;;;;;;;;;;1035617;28;20378;-20
2023/03/13 00:36:21;;;;;;;1.75;1.15;;;;;;;;;;1034362;28;20121;-20
2023/03/13 00:36:52;;;;;;;8.40;1.83;;;;;;;;;;1034158;28;20026;-21
2023/03/13 00:37:22;;;;;;;1.38;0.95;;;;;;;;;;1034079;28;20117;-21
2023/03/13 00:37:53;;;;;;;2.00;1.30;;;;;;;;;;1033300;28;20030;-20
2023/03/13 00:38:23;;;;;;;0.85;0.50;;;;;;;;;;1033493;28;20113;-20
2023/03/13 00:38:54;;;;;;;2.90;1.35;;;;;;;;;;1033023;28;20121;-20
2023/03/13 00:39:25;;;;;;;1.75;0.93;;;;;;;;;;1033304;28;20025;-20
2023/03/13 00:39:55;;;;;;;2.88;0.93;;;;;;;;;;1033367;28;20023;-21
2023/03/13 00:40:25;;;;;;;3.58;1.92;;;;;;;;;;1033324;28;20515;-20
2023/03/13 00:41:03;;;;;;;3.30;1.10;;;;;;;;;;1033353;28;20474;-20
2023/03/13 00:41:35;;;;;;;1.48;0.85;;;;;;;;;;1032042;28;20026;-21
2023/03/13 00:42:05;;;;;;;1.42;1.33;;;;;;;;;;1033338;28;20064;-21
2023/03/13 00:42:36;;;;;;;2.00;1.52;;;;;;;;;;1034404;28;20159;-21
2023/03/13 00:43:06;;;;;;;1.40;1.10;;;;;;;;;;1033504;28;20516;-20
2023/03/13 00:43:37;;;;;;;5.15;0.68;;;;;;;;;;1035197;28;20057;-20
2023/03/13 00:44:07;;;;;;;3.38;1.20;;;;;;;;;;1033664;28;20145;-22
2023/03/13 00:44:38;;;;;;;2.25;1.13;;;;;;;;;;1033162;28;20500;-20
2023/03/13 00:45:08;;;;;;;2.20;1.17;;;;;;;;;;1033378;28;20030;-21
2023/03/13 00:45:39;;;;;;;2.15;0.73;;;;;;;;;;1033817;28;20030;-21
2023/03/13 00:46:10;;;;;;;3.25;1.25;;;;;;;;;;1033500;28;20030;-20
2023/03/13 00:46:40;;;;;;;1.88;0.90;;;;;;;;;;1035395;28;20030;-21
2023/03/13 00:47:11;;;;;;;2.72;0.98;;;;;;;;;;1035624;28;20048;-21
2023/03/13 00:47:41;;;;;;;0.45;0.45;;;;;;;;;;1035287;28;20018;-21
2023/03/13 00:48:11;;;;;;;1.27;0.57;;;;;;;;;;1034648;28;20018;-20
2023/03/13 00:48:42;;;;;;;1.17;0.85;;;;;;;;;;1035108;28;20026;-21
2023/03/13 00:49:12;;;;;;;1.52;1.13;;;;;;;;;;1034242;28;20026;-20
2023/03/13 00:49:43;;;;;;;3.00;0.82;;;;;;;;;;1033067;28;20026;-20
2023/03/13 00:50:13;;;;;;;1.55;0.82;;;;;;;;;;1033577;28;20022;-20
2023/03/13 00:50:44;;;;;;;1.15;0.50;;;;;;;;;;1033712;28;20030;-21
2023/03/13 00:51:15;;;;;;;1.42;0.90;;;;;;;;;;1033601;28;20149;-21
2023/03/13 00:51:45;;;;;;;3.03;1.27;;;;;;;;;;1033059;28;20129;-20
2023/03/13 00:52:16;;;;;;;3.35;1.67;;;;;;;;;;1033310;28;20088;-20
2023/03/13 00:52:47;;;;;;;3.33;0.98;;;;;;;;;;1032940;28;20026;-20
2023/03/13 00:53:17;;;;;;;1.42;0.88;;;;;;;;;;1033506;28;20474;-21
2023/03/13 00:53:48;;;;;;;4.47;1.17;;;;;;;;;;1032733;28;20030;-20
2023/03/13 00:54:18;;;;;;;1.90;0.90;;;;;;;;;;1035709;28;20504;-21
2023/03/13 00:54:49;;;;;;;0.90;0.52;;;;;;;;;;1035470;28;20034;-20
2023/03/13 00:55:19;;;;;;;3.55;1.08;;;;;;;;;;1034966;28;20052;-21
2023/03/13 00:55:54;;;;;;;1.92;1.30;;;;;;;;;;1035492;28;20026;-21
2023/03/13 00:56:25;;;;;;;2.47;1.05;;;;;;;;;;1035476;28;20026;-21
2023/03/13 00:56:55;;;;;;;2.67;1.08;;;;;;;;;;1035390;28;20096;-20
2023/03/13 00:57:26;;;;;;;1.60;0.98;;;;;;;;;;1035361;28;20072;-20
2023/03/13 00:57:56;;;;;;;1.92;1.20;;;;;;;;;;1033964;28;20505;-20
2023/03/13 00:58:28;;;;;;;3.83;0.70;;;;;;;;;;1033246;28;20045;-20
2023/03/13 00:59:00;;;;;;;1.42;0.75;;;;;;;;;;1033735;28;20027;-21
2023/03/13 00:59:31;;;;;;;2.80;1.15;;;;;;;;;;1035004;28;20021;-21
2023/03/13 01:00:04;;;;;;;0.65;0.52;;;;;;;;;;1037071;28;20504;-21
2023/03/13 01:00:35;;;;;;;2.47;1.38;;;;;;;;;;1035967;28;20477;-20
2023/03/13 01:01:10;;;;;;;2.85;1.75;;;;;;;;;;1036531;28;20022;-20
2023/03/13 01:01:40;;;;;;;1.48;1.00;;;;;;;;;;1034158;28;20080;-21
2023/03/13 01:02:11;;;;;;;1.50;0.68;;;;;;;;;;1035765;28;20473;-21
2023/03/13 01:02:42;;;;;;;2.55;1.58;;;;;;;;;;1032665;28;20529;-20
2023/03/13 01:03:12;;;;;;;2.10;1.63;;;;;;;;;;1032111;28;20133;-21
2023/03/13 01:03:45;;;;;;;2.30;1.13;;;;;;;;;;1034001;28;20026;-20
2023/03/13 01:04:15;;;;;;;1.30;0.57;;;;;;;;;;1033536;28;20036;-21
2023/03/13 01:04:46;;;;;;;2.50;1.17;;;;;;;;;;1036765;28;20504;-21
2023/03/13 01:05:16;;;;;;;7.50;1.02;;;;;;;;;;1036450;28;20498;-20
2023/03/13 01:06:00;;;;;;;0.80;0.80;;;;;;;;;;1034893;28;20128;-23
2023/03/13 01:06:33;;;;;;;1.25;0.50;;;;;;;;;;1033298;28;20032;-21
2023/03/13 01:07:03;;;;;;;1.77;1.23;;;;;;;;;;1035358;28;20060;-21
2023/03/13 01:07:33;;;;;;;1.17;0.80;;;;;;;;;;1034539;28;20488;-21
2023/03/13 01:08:04;;;;;;;2.17;1.25;;;;;;;;;;1034152;28;20468;-21
2023/03/13 01:08:34;;;;;;;1.48;0.43;;;;;;;;;;1034946;28;20527;-20
2023/03/13 01:09:05;;;;;;;0.75;0.65;;;;;;;;;;1034257;28;20021;-21
2023/03/13 01:09:36;;;;;;;1.80;1.10;;;;;;;;;;1031514;28;20393;-20
2023/03/13 01:10:06;;;;;;;1.85;0.60;;;;;;;;;;1033404;28;20073;-20
2023/03/13 01:10:37;;;;;;;1.00;0.77;;;;;;;;;;1032786;28;20022;-20
2023/03/13 01:11:09;;;;;;;2.33;0.85;;;;;;;;;;1032726;28;20014;-21
2023/03/13 01:11:40;;;;;;;1.40;1.08;;;;;;;;;;1035017;28;20017;-21
2023/03/13 01:12:10;;;;;;;2.58;1.00;;;;;;;;;;1035487;28;20103;-20
2023/03/13 01:12:41;;;;;;;3.45;0.93;;;;;;;;;;1035245;28;20615;-21
2023/03/13 01:13:11;;;;;;;2.05;1.02;;;;;;;;;;1035389;28;20109;-21
2023/03/13 01:13:42;;;;;;;1.80;0.85;;;;;;;;;;1034227;28;20026;-20
2023/03/13 01:14:14;;;;;;;1.65;0.73;;;;;;;;;;1033765;28;20037;-20
2023/03/13 01:14:48;;;;;;;10.45;1.08;;;;;;;;;;1032942;28;20087;-20
2023/03/13 01:15:18;;;;;;;3.80;1.02;;;;;;;;;;1033946;28;20033;-21
2023/03/13 01:15:49;;;;;;;0.75;0.70;;;;;;;;;;1032943;28;20018;-21
2023/03/13 01:16:20;;;;;;;2.72;1.00;;;;;;;;;;1033047;28;20049;-21
2023/03/13 01:16:50;;;;;;;3.47;1.00;;;;;;;;;;1032863;28;20026;-20
2023/03/13 01:17:21;;;;;;;2.63;1.10;;;;;;;;;;1033379;28;20076;-20
2023/03/13 01:17:51;;;;;;;1.23;0.50;;;;;;;;;;1032669;28;20482;-20
2023/03/13 01:18:22;;;;;;;3.08;1.05;;;;;;;;;;1034098;28;20040;-21
2023/03/13 01:18:54;;;;;;;0.73;0.30;;;;;;;;;;1034225;28;20708;-21
2023/03/13 01:19:24;;;;;;;7.28;1.20;;;;;;;;;;1032278;28;20748;-20
2023/03/13 01:19:55;;;;;;;1.08;0.55;;;;;;;;;;1032654;28;20037;-20
2023/03/13 01:20:25;;;;;;;1.75;0.77;;;;;;;;;;1029087;28;20030;-21
2023/03/13 01:20:56;;;;;;;1.15;1.05;;;;;;;;;;1032230;28;20034;-20
2023/03/13 01:21:27;;;;;;;1.50;1.17;;;;;;;;;;1034857;28;20026;-20
2023/03/13 01:21:57;;;;;;;1.15;0.68;;;;;;;;;;1034252;28;20478;-21
2023/03/13 01:22:28;;;;;;;1.00;0.77;;;;;;;;;;1034254;28;20064;-20
2023/03/13 01:22:58;;;;;;;0.88;0.60;;;;;;;;;;1033036;28;20049;-20
2023/03/13 01:23:29;;;;;;;1.00;0.82;;;;;;;;;;1031011;28;20018;-20
2023/03/13 01:23:59;;;;;;;0.30;0.25;;;;;;;;;;1033445;28;20088;-21
2023/03/13 01:24:30;;;;;;;2.33;1.05;;;;;;;;;;1034881;28;20033;-20
2023/03/13 01:25:00;;;;;;;1.30;0.75;;;;;;;;;;1035280;28;20033;-21
2023/03/13 01:25:34;;;;;;;0.45;0.25;;;;;;;;;;1033243;28;20032;-21
2023/03/13 01:26:06;;;;;;;1.85;0.80;;;;;;;;;;1032386;28;20021;-21
2023/03/13 01:26:36;;;;;;;0.55;0.50;;;;;;;;;;1034396;28;20113;-21
2023/03/13 01:27:07;;;;;;;1.08;0.68;;;;;;;;;;1034583;28;20454;-20
2023/03/13 01:27:37;;;;;;;1.00;0.43;;;;;;;;;;1033578;28;20025;-22
2023/03/13 01:28:07;;;;;;;1.80;1.00;;;;;;;;;;1034595;28;20026;-20
2023/03/13 01:28:38;;;;;;;1.90;1.10;;;;;;;;;;1034617;28;20030;-20
2023/03/13 01:29:09;;;;;;;1.00;0.47;;;;;;;;;;1034367;28;20478;-21
2023/03/13 01:29:39;;;;;;;2.30;0.50;;;;;;;;;;1032209;28;21015;-21
2023/03/13 01:30:10;;;;;;;0.95;0.65;;;;;;;;;;1032334;28;20033;-23
2023/03/13 01:30:40;;;;;;;1.02;0.57;;;;;;;;;;1031908;28;20674;-21
2023/03/13 01:31:12;;;;;;;1.38;0.98;;;;;;;;;;1031388;28;20493;-21
2023/03/13 01:31:43;;;;;;;1.30;0.55;;;;;;;;;;1032766;28;20056;-20
2023/03/13 01:32:13;;;;;;;1.35;0.50;;;;;;;;;;1034005;28;20048;-21
2023/03/13 01:32:44;;;;;;;2.58;0.82;;;;;;;;;;1034394;28;20064;-21
2023/03/13 01:33:14;;;;;;;1.17;0.65;;;;;;;;;;1032621;28;20707;-21
2023/03/13 01:33:46;;;;;;;2.00;1.13;;;;;;;;;;1032323;28;20080;-21
2023/03/13 01:34:16;;;;;;;0.68;0.43;;;;;;;;;;1033625;28;20023;-21
2023/03/13 01:34:47;;;;;;;0.40;0.40;;;;;;;;;;1032356;28;20409;-21
2023/03/13 01:35:18;;;;;;;1.08;0.65;;;;;;;;;;1032579;28;20022;-21
2023/03/13 01:35:49;;;;;;;4.57;1.38;;;;;;;;;;1035911;28;20065;-21
2023/03/13 01:36:19;;;;;;;1.02;0.57;;;;;;;;;;1035426;28;20029;-22
2023/03/13 01:36:51;;;;;;;0.50;0.50;;;;;;;;;;1035125;28;20511;-21
2023/03/13 01:37:21;;;;;;;1.38;0.40;;;;;;;;;;1034592;28;20025;-23
2023/03/13 01:37:52;;;;;;;11.75;1.65;;;;;;;;;;1034701;28;20030;-21
2023/03/13 01:38:22;;;;;;;0.70;0.50;;;;;;;;;;1034348;28;20033;-22
2023/03/13 01:38:54;;;;;;;2.72;1.02;;;;;;;;;;1035085;28;20040;-22
2023/03/13 01:39:25;;;;;;;0.73;0.45;;;;;;;;;;1032484;28;20106;-21
2023/03/13 01:39:55;;;;;;;0.55;0.40;;;;;;;;;;1033516;28;20445;-21
2023/03/13 01:40:26;;;;;;;0.85;0.45;;;;;;;;;;1034135;28;20031;-21
2023/03/13 01:40:56;;;;;;;0.45;0.45;;;;;;;;;;1034330;28;20018;-22
2023/03/13 01:41:28;;;;;;;0.38;0.38;;;;;;;;;;1031728;28;20034;-22
2023/03/13 01:41:59;;;;;;;0.28;0.25;;;;;;;;;;1034049;28;20030;-21
2023/03/13 01:42:29;;;;;;;1.45;0.70;;;;;;;;;;1033625;28;20400;-21
2023/03/13 01:43:00;;;;;;;5.72;0.60;;;;;;;;;;1033674;28;20022;-21
2023/03/13 01:43:32;;;;;;;5.22;0.70;;;;;;;;;;1033206;28;20311;-20
2023/03/13 01:44:02;;;;;;;2.83;1.05;;;;;;;;;;1034982;28;20037;-21
2023/03/13 01:44:56;;;;;;;1.45;0.60;;;;;;;;;;1032877;28;20037;-21
2023/03/13 01:45:45;;;;;;;0.13;0.13;;;;;;;;;;1033133;28;20068;-21
2023/03/13 01:46:23;;;;;;;0.35;0.35;;;;;;;;;;1033403;28;20489;-21
2023/03/13 01:46:55;;;;;;;2.35;0.75;;;;;;;;;;1033674;28;20018;-23
2023/03/13 01:47:27;;;;;;;0.77;0.55;;;;;;;;;;1034715;28;20026;-21
2023/03/13 01:47:58;;;;;;;0.77;0.50;;;;;;;;;;1033869;28;20450;-23
2023/03/13 01:48:42;;;;;;;1.73;0.60;;;;;;;;;;1033245;28;20028;-21
2023/03/13 01:49:23;;;;;;;0.65;0.43;;;;;;;;;;1033820;28;20029;-21
2023/03/13 01:49:54;;;;;;;0.30;0.30;;;;;;;;;;1033644;28;20066;-21
2023/03/13 01:50:24;;;;;;;1.60;0.60;;;;;;;;;;1035509;28;20030;-21
2023/03/13 01:50:55;;;;;;;0.82;0.52;;;;;;;;;;1035661;28;20509;-22
2023/03/13 01:51:33;;;;;;;3.20;0.65;;;;;;;;;;1034272;28;20029;-21
2023/03/13 01:52:12;;;;;;;5.63;1.58;;;;;;;;;;1034970;28;20717;-21
2023/03/13 01:52:43;;;;;;;1.15;0.63;;;;;;;;;;1032264;28;20025;-21
2023/03/13 01:53:13;;;;;;;4.10;1.60;;;;;;;;;;1034826;28;20057;-20
2023/03/13 01:53:45;;;;;;;2.30;1.80;;;;;;;;;;1033349;28;20034;-21
2023/03/13 01:54:19;;;;;;;1.00;0.82;;;;;;;;;;1035441;28;20438;-21
2023/03/13 01:54:50;;;;;;;0.75;0.57;;;;;;;;;;1036014;28;20076;-21
2023/03/13 01:55:21;;;;;;;3.55;0.80;;;;;;;;;;1034950;28;20424;-21
2023/03/13 01:55:52;;;;;;;2.00;0.68;;;;;;;;;;1034434;28;20052;-22
2023/03/13 01:56:26;;;;;;;4.57;0.88;;;;;;;;;;1035121;28;20120;-21
2023/03/13 01:56:59;;;;;;;0.68;0.63;;;;;;;;;;1034065;28;20034;-20
2023/03/13 01:57:33;;;;;;;1.55;0.73;;;;;;;;;;1033282;28;20036;-20
2023/03/13 01:58:03;;;;;;;2.63;1.02;;;;;;;;;;1035483;28;20030;-22
2023/03/13 01:58:34;;;;;;;1.35;0.75;;;;;;;;;;1035167;28;20014;-21
2023/03/13 01:59:07;;;;;;;0.38;0.25;;;;;;;;;;1035868;28;20034;-21
2023/03/13 01:59:41;;;;;;;0.30;0.28;;;;;;;;;;1035224;28;20465;-20
2023/03/13 02:00:16;;;;;;;2.22;0.93;;;;;;;;;;1036974;28;20413;-20
2023/03/13 02:00:47;;;;;;;3.78;0.50;;;;;;;;;;1033758;28;20092;-20
2023/03/13 02:01:18;;;;;;;1.17;0.57;;;;;;;;;;1034607;28;20052;-21
2023/03/13 02:01:49;;;;;;;0.77;0.38;;;;;;;;;;1034081;28;20060;-21
2023/03/13 02:02:21;;;;;;;2.40;1.10;;;;;;;;;;1033991;28;20025;-21
2023/03/13 02:02:53;;;;;;;0.30;0.30;;;;;;;;;;1032747;28;20175;-21
2023/03/13 02:03:26;;;;;;;0.82;0.82;;;;;;;;;;1035059;28;20017;-22
2023/03/13 02:03:57;;;;;;;0.65;0.43;;;;;;;;;;1033619;28;20393;-22
2023/03/13 02:04:30;;;;;;;1.40;0.40;;;;;;;;;;1035298;28;20030;-21
2023/03/13 02:05:02;;;;;;;0.50;0.40;;;;;;;;;;1035840;28;20029;-21
2023/03/13 02:05:32;;;;;;;1.17;1.00;;;;;;;;;;1033841;28;20025;-20
2023/03/13 02:06:04;;;;;;;5.75;1.45;;;;;;;;;;1034277;28;20022;-21
2023/03/13 02:06:38;;;;;;;3.05;1.13;;;;;;;;;;1035317;28;20017;-21
2023/03/13 02:07:11;;;;;;;1.95;0.60;;;;;;;;;;1035870;28;20045;-21
2023/03/13 02:07:46;;;;;;;0.30;0.30;;;;;;;;;;1035178;28;20030;-22
2023/03/13 02:08:27;;;;;;;0.80;0.52;;;;;;;;;;1033642;28;20553;-21
2023/03/13 02:09:04;;;;;;;0.75;0.75;;;;;;;;;;1036308;28;20088;-21
2023/03/13 02:09:34;;;;;;;2.17;0.93;;;;;;;;;;1035639;28;20678;-22
2023/03/13 02:10:06;;;;;;;0.75;0.65;;;;;;;;;;1037449;28;20084;-23
2023/03/13 02:10:41;;;;;;;0.95;0.63;;;;;;;;;;1034276;28;20029;-21
2023/03/13 02:11:30;;;;;;;0.15;0.15;;;;;;;;;;1032801;28;20441;-21
2023/03/13 02:12:06;;;;;;;0.10;0.10;;;;;;;;;;1035004;28;20025;-21
2023/03/13 02:12:37;;;;;;;2.67;1.38;;;;;;;;;;1034045;28;20823;-21
2023/03/13 02:13:12;;;;;;;1.17;0.60;;;;;;;;;;1033661;28;20065;-22
2023/03/13 02:13:43;;;;;;;2.22;0.90;;;;;;;;;;1031031;28;20033;-21
2023/03/13 02:14:15;;;;;;;3.17;1.05;;;;;;;;;;1032579;28;20413;-21
2023/03/13 02:14:46;;;;;;;0.50;0.50;;;;;;;;;;1032728;28;20068;-21
2023/03/13 02:15:21;;;;;;;1.75;0.50;;;;;;;;;;1032432;28;20141;-21
2023/03/13 02:15:54;;;;;;;0.50;0.50;;;;;;;;;;1034584;28;20125;-21
2023/03/13 02:16:25;;;;;;;4.68;1.17;;;;;;;;;;1034644;28;20022;-21
2023/03/13 02:16:55;;;;;;;3.20;1.10;;;;;;;;;;1034378;28;20409;-22
2023/03/13 02:17:26;;;;;;;0.40;0.40;;;;;;;;;;1033918;28;20117;-21
2023/03/13 02:17:59;;;;;;;2.05;0.57;;;;;;;;;;1033904;28;20169;-21
2023/03/13 02:18:32;;;;;;;0.90;0.73;;;;;;;;;;1034633;28;20191;-21
2023/03/13 02:19:05;;;;;;;0.28;0.28;;;;;;;;;;1035586;28;20583;-21
2023/03/13 02:19:44;;;;;;;2.05;0.50;;;;;;;;;;1033303;28;20033;-21
2023/03/13 02:20:22;;;;;;;1.80;0.43;;;;;;;;;;1033403;28;20088;-20
2023/03/13 02:20:55;;;;;;;2.25;1.27;;;;;;;;;;1029355;28;20101;-20
2023/03/13 02:21:36;;;;;;;0.95;0.75;;;;;;;;;;1029047;28;20037;-20
2023/03/13 02:22:09;;;;;;;1.88;1.35;;;;;;;;;;1033057;28;20381;-21
2023/03/13 02:22:40;;;;;;;0.68;0.57;;;;;;;;;;1034786;28;20085;-20
2023/03/13 02:23:29;;;;;;;0.90;0.55;;;;;;;;;;1035667;28;20569;-21
2023/03/13 02:24:38;;;;;;;0.98;0.93;;;;;;;;;;1035658;28;20037;-21
2023/03/13 02:25:18;;;;;;;3.67;1.58;;;;;;;;;;1024756;28;20503;-20
2023/03/13 02:25:51;;;;;;;1.92;0.85;;;;;;;;;;1021063;29;20023;-21
2023/03/13 02:26:22;;;;;;;0.82;0.70;;;;;;;;;;1021679;28;20031;-21
2023/03/13 02:26:53;;;;;;;0.73;0.57;;;;;;;;;;1020502;29;20206;-21
2023/03/13 02:27:23;;;;;;;1.38;0.57;;;;;;;;;;1021684;28;20035;-21
2023/03/13 02:27:57;;;;;;;1.45;0.95;;;;;;;;;;1025150;28;20027;-21
2023/03/13 02:28:32;;;;;;;1.52;0.85;;;;;;;;;;1025552;28;20110;-20
2023/03/13 02:29:03;;;;;;;2.95;1.20;;;;;;;;;;1025242;28;20023;-21
2023/03/13 02:29:33;;;;;;;0.95;0.65;;;;;;;;;;1025012;28;20479;-21
2023/03/13 02:30:05;;;;;;;1.10;0.75;;;;;;;;;;1023378;28;20114;-22
2023/03/13 02:30:36;;;;;;;1.15;0.52;;;;;;;;;;1023441;28;20031;-21
2023/03/13 02:31:07;;;;;;;0.40;0.40;;;;;;;;;;1028596;28;20174;-22
2023/03/13 02:31:38;;;;;;;4.65;0.80;;;;;;;;;;1027463;28;20517;-21
2023/03/13 02:32:08;;;;;;;2.88;1.13;;;;;;;;;;1028770;28;20160;-21
2023/03/13 02:32:39;;;;;;;2.95;0.77;;;;;;;;;;1030008;28;20065;-21
2023/03/13 02:33:11;;;;;;;0.68;0.65;;;;;;;;;;1034989;28;20018;-21
2023/03/13 02:33:43;;;;;;;1.23;0.60;;;;;;;;;;1033841;28;20060;-22
2023/03/13 02:34:20;;;;;;;1.80;0.95;;;;;;;;;;1032703;28;20025;-22
2023/03/13 02:34:55;;;;;;;2.88;1.00;;;;;;;;;;1038064;28;20358;-21
2023/03/13 02:35:25;;;;;;;1.30;0.65;;;;;;;;;;1036384;28;20125;-21
2023/03/13 02:35:57;;;;;;;1.42;0.85;;;;;;;;;;1035792;28;20025;-21
2023/03/13 02:36:29;;;;;;;3.25;1.42;;;;;;;;;;1033188;28;20529;-21
2023/03/13 02:37:01;;;;;;;0.93;0.57;;;;;;;;;;1031014;28;20042;-22
2023/03/13 02:37:32;;;;;;;2.97;0.90;;;;;;;;;;1032520;28;20044;-21
2023/03/13 02:38:04;;;;;;;3.38;1.23;;;;;;;;;;1034559;28;20038;-22
2023/03/13 02:38:38;;;;;;;8.07;1.23;;;;;;;;;;1036862;28;20013;-21
2023/03/13 02:39:15;;;;;;;1.15;0.90;;;;;;;;;;1038323;28;20045;-22
2023/03/13 02:39:50;;;;;;;1.13;0.75;;;;;;;;;;1034825;28;20385;-21
2023/03/13 02:40:24;;;;;;;0.90;0.40;;;;;;;;;;1037282;28;20119;-22
2023/03/13 02:40:58;;;;;;;0.63;0.50;;;;;;;;;;1031356;28;20034;-22
2023/03/13 02:41:34;;;;;;;2.65;1.23;;;;;;;;;;1032923;28;20021;-21
2023/03/13 02:42:05;;;;;;;2.95;2.13;;;;;;;;;;1028395;28;20624;-22
2023/03/13 02:42:38;;;;;;;1.75;1.55;;;;;;;;;;1030819;28;20014;-22
2023/03/13 02:43:11;;;;;;;1.10;0.77;;;;;;;;;;1035091;28;20103;-21
2023/03/13 02:43:42;;;;;;;1.90;0.95;;;;;;;;;;1033616;28;20458;-20
2023/03/13 02:44:13;;;;;;;2.25;1.38;;;;;;;;;;1034048;28;20025;-20
2023/03/13 02:44:46;;;;;;;2.17;1.65;;;;;;;;;;1033222;28;20030;-21
2023/03/13 02:45:17;;;;;;;2.40;0.65;;;;;;;;;;1035674;28;20674;-23
2023/03/13 02:46:05;;;;;;;1.60;0.88;;;;;;;;;;1031854;28;20045;-21
2023/03/13 02:46:46;;;;;;;1.25;0.95;;;;;;;;;;1035334;28;20059;-22
2023/03/13 02:47:20;;;;;;;2.40;1.42;;;;;;;;;;1034097;28;20034;-20
2023/03/13 02:47:51;;;;;;;4.10;1.70;;;;;;;;;;1032120;28;20520;-21
2023/03/13 02:48:29;;;;;;;2.95;1.02;;;;;;;;;;1032683;28;20026;-20
2023/03/13 02:49:15;;;;;;;2.53;1.02;;;;;;;;;;1032886;28;20481;-19
2023/03/13 02:49:49;;;;;;;4.38;1.23;;;;;;;;;;1032427;28;20076;-22
2023/03/13 02:50:23;;;;;;;1.42;0.90;;;;;;;;;;1034139;28;20509;-23
2023/03/13 02:51:00;;;;;;;3.30;1.02;;;;;;;;;;1030521;28;20022;-22
2023/03/13 02:51:45;;;;;;;2.70;1.50;;;;;;;;;;1030986;28;20057;-22
2023/03/13 02:52:25;;;;;;;0.28;0.28;;;;;;;;;;1023314;28;20037;-22
2023/03/13 02:53:03;;;;;;;1.17;1.15;;;;;;;;;;1033763;28;20085;-21
2023/03/13 02:53:36;;;;;;;;;;;;;;;;;;1029572;28;20022;-21
2023/03/13 02:54:11;;;;;;;1.00;0.90;;;;;;;;;;1029886;28;19980;-21
2023/03/13 02:54:44;;;;;;;12.60;5.38;;;;;;;;;;1032931;28;20087;-23
2023/03/13 02:55:39;;;;;;;4.30;2.58;;;;;;;;;;1035857;28;20169;-21
2023/03/13 02:56:17;;;;;;;;;;;;;;;;;;1036118;28;20076;-25
2023/03/13 02:56:57;;;;;;;2.30;0.90;;;;;;;;;;1030352;28;20004;-23
2023/03/13 02:57:32;;;;;;;16.75;2.95;;;;;;;;;;1029124;28;20061;-21
2023/03/13 02:58:07;;;;;;;3.88;1.60;;;;;;;;;;1031787;28;20038;-23
2023/03/13 02:58:51;;;;;;;9.38;1.08;;;;;;;;;;1032446;28;20022;-23
2023/03/13 02:59:45;;;;;;;5.53;4.15;;;;;;;;;;1033756;28;20523;-21
2023/03/13 03:01:51;;;;;;;1.65;0.93;;;;;;;;;;1034874;28;20282;-23
2023/03/13 03:02:37;;;;;;;1.02;0.65;;;;;;;;;;1034514;28;20040;-22
2023/03/13 03:03:20;;;;;;;5.72;0.80;;;;;;;;;;1035479;28;20021;-22
2023/03/13 03:03:54;;;;;;;1.23;1.08;;;;;;;;;;1032576;28;20037;-22
2023/03/13 03:04:27;;;;;;;11.60;1.92;;;;;;;;;;1033075;28;20022;-22
2023/03/13 03:05:03;;;;;;;2.08;1.05;;;;;;;;;;1032932;28;20390;-22
2023/03/13 03:05:36;;;;;;;1.85;1.05;;;;;;;;;;1028114;28;20236;-22
2023/03/13 03:06:11;;;;;;;3.60;2.10;;;;;;;;;;1029990;28;20467;-22
2023/03/13 03:06:43;;;;;;;0.98;0.98;;;;;;;;;;1032548;28;20069;-22
2023/03/13 03:07:17;;;;;;;3.42;1.25;;;;;;;;;;1035327;28;20065;-23
2023/03/13 03:07:56;;;;;;;5.68;1.40;;;;;;;;;;1037691;28;20040;-22
2023/03/13 03:08:32;;;;;;;1.30;0.85;;;;;;;;;;1035539;28;20022;-22
2023/03/13 03:09:08;;;;;;;0.77;0.77;;;;;;;;;;1029852;28;20279;-21
2023/03/13 03:09:53;;;;;;;8.38;2.33;;;;;;;;;;1031340;28;20092;-20
2023/03/13 03:10:30;;;;;;;6.03;1.85;;;;;;;;;;1033822;28;20042;-23
2023/03/13 03:11:07;;;;;;;5.65;2.20;;;;;;;;;;1032794;28;20115;-22
2023/03/13 03:11:40;;;;;;;4.07;2.25;;;;;;;;;;1034723;28;20690;-22
2023/03/13 03:12:19;;;;;;;9.38;2.88;;;;;;;;;;1032192;28;20029;-21
2023/03/13 03:12:54;;;;;;;4.03;0.80;;;;;;;;;;1030963;28;20453;-22
2023/03/13 03:13:46;;;;;;;3.38;1.98;;;;;;;;;;1031727;28;20013;-23
2023/03/13 03:14:41;;;;;;;5.88;1.50;;;;;;;;;;1033800;28;20076;-22
2023/03/13 03:15:53;;;;;;;3.60;1.30;;;;;;;;;;1033814;28;20359;-23
2023/03/13 03:16:42;;;;;;;1.85;1.23;;;;;;;;;;1035378;28;20046;-22
2023/03/13 03:17:40;;;;;;;2.00;1.50;;;;;;;;;;1035293;28;20028;-23
2023/03/13 03:18:14;;;;;;;9.02;1.95;;;;;;;;;;1032637;28;20529;-24
2023/03/13 03:18:54;;;;;;;4.85;2.42;;;;;;;;;;1026113;28;20026;-24
2023/03/13 03:19:57;;;;;;;3.70;2.65;;;;;;;;;;1027011;28;20121;-25
2023/03/13 03:20:53;;;;;;;4.30;1.35;;;;;;;;;;1021554;28;20705;-22
2023/03/13 03:21:35;;;;;;;3.08;2.03;;;;;;;;;;1018503;29;20825;-23